Time;durP1;ratioP1;P1;durP2;ratioP2;P2;SDS_P1;SDS_P2;PMS_P1;PMS_P2;Temp;Humidity;BMP_temperature;BMP_pressure;BME280_temperature;BME280_humidity;BME280_pressure;Samples;Min_cycle;Max_cycle;Signal;HPM_P1;HPM_P2
2024/03/25 00:02:27;;;;;;;5.00;2.70;;;;;;;6.92;100.00;99972.28;6118723;28;20224;-77
2024/03/25 00:05:48;;;;;;;3.23;2.27;;;;;;;6.92;100.00;99983.84;6135192;28;20230;-75
2024/03/25 00:09:24;;;;;;;3.43;2.07;;;;;;;6.96;100.00;99981.75;6121493;28;20238;-76
2024/03/25 00:12:45;;;;;;;4.53;2.60;;;;;;;6.87;100.00;99988.75;6132512;28;20247;-76
2024/03/25 00:16:06;;;;;;;6.63;4.13;;;;;;;6.95;100.00;99993.44;6133580;28;20227;-77
2024/03/25 00:19:27;;;;;;;4.93;1.97;;;;;;;6.85;100.00;99987.19;6138233;28;20234;-76
2024/03/25 00:22:54;;;;;;;3.53;2.40;;;;;;;6.89;100.00;99992.16;6139889;28;20605;-76
2024/03/25 00:26:16;;;;;;;3.10;2.20;;;;;;;6.85;100.00;100003.25;6127871;28;20526;-76
2024/03/25 00:33:19;;;;;;;7.00;1.70;;;;;;;6.79;100.00;100007.34;6090592;29;20236;-75
2024/03/25 00:36:40;;;;;;;5.13;2.13;;;;;;;6.82;100.00;100003.53;6066721;29;20244;-75
2024/03/25 00:40:00;;;;;;;2.53;1.57;;;;;;;6.78;100.00;100016.34;6087806;29;20666;-75
2024/03/25 00:43:22;;;;;;;7.83;2.00;;;;;;;6.84;100.00;100012.28;6059809;29;20220;-76
2024/03/25 00:46:42;;;;;;;2.40;2.23;;;;;;;6.85;100.00;100024.69;6092746;29;20614;-75
2024/03/25 00:50:04;;;;;;;7.20;1.97;;;;;;;6.92;100.00;100017.81;6091540;29;20307;-75
2024/03/25 00:53:24;;;;;;;6.87;1.97;;;;;;;6.87;100.00;100023.56;6089227;29;20285;-75
2024/03/25 00:57:05;;;;;;;4.60;1.97;;;;;;;6.88;100.00;100032.47;6080307;29;20235;-76
2024/03/25 01:00:28;;;;;;;2.13;2.03;;;;;;;6.81;100.00;100023.25;6084035;29;20239;-75
2024/03/25 01:03:49;;;;;;;5.60;2.40;;;;;;;6.75;100.00;100042.53;6069984;29;20227;-75
2024/03/25 01:07:09;;;;;;;3.30;1.93;;;;;;;6.64;100.00;100034.56;6086732;29;20259;-75
2024/03/25 01:10:30;;;;;;;2.70;1.80;;;;;;;6.69;100.00;100037.72;6068623;29;20237;-74
2024/03/25 01:13:49;;;;;;;3.47;2.10;;;;;;;6.74;100.00;100044.38;6095457;29;20230;-76
2024/03/25 01:17:20;;;;;;;2.03;1.57;;;;;;;6.72;100.00;100054.34;6077125;29;20248;-77
2024/03/25 01:20:41;;;;;;;4.13;2.40;;;;;;;6.73;100.00;100056.06;6075813;29;20241;-75
2024/03/25 01:24:04;;;;;;;3.47;2.43;;;;;;;6.64;100.00;100054.19;6090039;29;20232;-77
2024/03/25 01:27:25;;;;;;;4.60;2.60;;;;;;;6.72;100.00;100053.50;6079957;29;20228;-77
2024/03/25 01:30:53;;;;;;;6.27;3.23;;;;;;;6.67;100.00;100053.94;6080676;29;20236;-77
2024/03/25 01:34:15;;;;;;;2.50;2.20;;;;;;;6.79;100.00;100057.38;6075197;29;20228;-76
2024/03/25 01:37:39;;;;;;;7.83;3.23;;;;;;;6.79;100.00;100068.09;6060621;29;20261;-75
2024/03/25 01:41:09;;;;;;;2.87;2.57;;;;;;;6.78;100.00;100066.41;6049414;29;20232;-76
2024/03/25 01:44:29;;;;;;;5.30;3.47;;;;;;;6.75;100.00;100069.31;6080698;29;20232;-75
2024/03/25 01:47:50;;;;;;;4.73;2.40;;;;;;;6.75;100.00;100066.66;6076740;29;20233;-76
2024/03/25 01:51:39;;;;;;;8.33;3.07;;;;;;;6.83;100.00;100070.38;6069083;29;20236;-76
2024/03/25 01:55:00;;;;;;;3.73;2.77;;;;;;;6.89;100.00;100079.69;6075021;29;20336;-76
2024/03/25 01:58:22;;;;;;;3.37;2.60;;;;;;;6.87;100.00;100074.47;6088401;29;20602;-75
2024/03/25 02:01:44;;;;;;;3.47;3.17;;;;;;;6.83;100.00;100080.22;6083439;29;20237;-75
2024/03/25 02:05:05;;;;;;;7.27;4.13;;;;;;;6.81;100.00;100091.09;6085669;29;20503;-75
2024/03/25 02:08:28;;;;;;;5.57;3.20;;;;;;;6.88;100.00;100094.94;6100323;29;20232;-75
2024/03/25 02:11:50;;;;;;;4.93;3.40;;;;;;;6.89;100.00;100090.41;6073359;29;20225;-76
2024/03/25 02:15:12;;;;;;;7.07;3.13;;;;;;;6.87;100.00;100101.25;6075381;29;20221;-77
2024/03/25 02:18:35;;;;;;;5.53;3.20;;;;;;;6.75;100.00;100110.34;6088029;29;20243;-77
2024/03/25 02:21:56;;;;;;;3.03;2.83;;;;;;;6.77;100.00;100121.78;6069872;29;20256;-75
2024/03/25 02:25:23;;;;;;;3.73;2.43;;;;;;;6.75;100.00;100129.09;6085762;29;20236;-77
2024/03/25 02:28:45;;;;;;;4.37;2.23;;;;;;;6.68;100.00;100130.59;6085726;29;20244;-77
2024/03/25 02:32:15;;;;;;;2.90;2.03;;;;;;;6.49;100.00;100119.72;6086907;29;20518;-76
2024/03/25 02:35:37;;;;;;;4.27;1.77;;;;;;;6.55;100.00;100126.41;6086851;29;20244;-75
2024/03/25 02:38:56;;;;;;;3.10;2.37;;;;;;;6.55;100.00;100124.56;6083111;29;20232;-76
2024/03/25 02:42:18;;;;;;;2.90;2.57;;;;;;;6.58;100.00;100127.00;6078522;29;20236;-76
2024/03/25 02:45:49;;;;;;;1.80;1.57;;;;;;;6.60;100.00;100135.75;6077221;29;20236;-77
2024/03/25 02:49:09;;;;;;;4.63;2.33;;;;;;;6.51;100.00;100136.50;6091001;29;20232;-76
2024/03/25 02:52:47;;;;;;;5.63;2.40;;;;;;;6.47;100.00;100133.25;6083299;29;20771;-75
2024/03/25 02:56:07;;;;;;;2.93;2.00;;;;;;;6.53;100.00;100128.38;6085185;29;20260;-75
2024/03/25 02:59:27;;;;;;;4.00;2.53;;;;;;;6.58;100.00;100135.03;6094158;29;20255;-76
2024/03/25 03:02:49;;;;;;;2.50;2.27;;;;;;;6.57;100.00;100135.16;6073743;29;20241;-76
2024/03/25 03:06:10;;;;;;;7.73;3.10;;;;;;;6.60;100.00;100138.44;6064723;29;20319;-76
2024/03/25 03:09:31;;;;;;;5.23;2.60;;;;;;;6.62;100.00;100136.47;6074235;29;20240;-76
2024/03/25 03:12:57;;;;;;;3.77;2.60;;;;;;;6.57;100.00;100148.56;6084159;29;20300;-76
2024/03/25 03:16:17;;;;;;;3.87;1.90;;;;;;;6.60;100.00;100150.97;6100037;29;20244;-75
2024/03/25 03:19:48;;;;;;;8.53;3.27;;;;;;;6.63;100.00;100167.66;6095209;29;20502;-76
2024/03/25 03:23:12;;;;;;;6.00;2.03;;;;;;;6.61;100.00;100176.78;6060958;29;20236;-76
2024/03/25 03:26:32;;;;;;;2.67;2.00;;;;;;;6.65;100.00;100181.75;6090217;29;20307;-75
2024/03/25 03:29:53;;;;;;;7.50;2.70;;;;;;;6.64;100.00;100195.25;6094959;29;20228;-75
2024/03/25 03:33:31;;;;;;;4.43;1.83;;;;;;;6.59;100.00;100197.47;6090930;29;20590;-77
2024/03/25 03:36:53;;;;;;;3.03;2.10;;;;;;;6.56;100.00;100200.41;6081798;29;20220;-76
2024/03/25 03:40:16;;;;;;;6.60;2.20;;;;;;;6.60;100.00;100205.38;6068946;29;20616;-76
2024/03/25 03:43:37;;;;;;;4.10;1.97;;;;;;;6.51;100.00;100208.81;6105892;29;20322;-76
2024/03/25 03:46:58;;;;;;;5.27;2.00;;;;;;;6.53;100.00;100225.59;6081842;29;20233;-77
2024/03/25 03:50:18;;;;;;;6.27;3.03;;;;;;;6.47;100.00;100235.97;6072721;29;20236;-75
2024/03/25 03:53:50;;;;;;;5.13;2.00;;;;;;;6.49;100.00;100229.50;6089578;29;20236;-77
2024/03/25 03:57:12;;;;;;;3.77;2.03;;;;;;;6.46;100.00;100229.75;6069316;29;20324;-75
2024/03/25 04:00:38;;;;;;;1.87;1.77;;;;;;;6.42;100.00;100231.00;6084733;29;20312;-75
2024/03/25 04:03:59;;;;;;;3.10;2.53;;;;;;;6.40;100.00;100231.09;6086771;29;20228;-74
2024/03/25 04:07:30;;;;;;;5.13;2.13;;;;;;;6.43;100.00;100238.03;6075749;29;20299;-76
2024/03/25 04:10:52;;;;;;;2.00;1.70;;;;;;;6.50;100.00;100238.38;6086165;29;20243;-75
2024/03/25 04:14:16;;;;;;;3.67;1.90;;;;;;;6.46;100.00;100251.19;6086552;29;20232;-79
2024/03/25 04:17:36;;;;;;;2.93;2.27;;;;;;;6.49;100.00;100248.25;6063224;29;20232;-75
2024/03/25 04:21:11;;;;;;;3.00;2.40;;;;;;;6.39;100.00;100248.16;6063902;29;20237;-75
2024/03/25 04:24:34;;;;;;;1.63;1.40;;;;;;;6.40;100.00;100257.88;6092197;29;21597;-73
2024/03/25 04:27:55;;;;;;;5.33;2.57;;;;;;;6.40;100.00;100265.06;6076870;29;20244;-75
2024/03/25 04:31:16;;;;;;;1.80;1.70;;;;;;;6.33;100.00;100269.22;6068576;29;20240;-74
2024/03/25 04:34:43;;;;;;;7.70;2.23;;;;;;;6.42;100.00;100280.00;6071023;29;20239;-75
